createdAt,value
2023-01-26T07:57:44.740Z,38.13
2023-01-26T08:02:53.249Z,41.17
2023-01-26T08:08:01.216Z,38.37
2023-01-26T08:13:08.890Z,36.47
2023-01-26T08:18:14.198Z,36.80
2023-01-26T08:23:19.599Z,41.23
2023-01-26T08:28:27.495Z,34.47
2023-01-26T08:33:33.761Z,42.03
2023-01-26T08:38:38.899Z,34.30
2023-01-26T08:43:46.688Z,33.63
2023-01-26T08:48:52.029Z,37.97
2023-01-26T08:53:57.350Z,35.10
2023-01-26T08:59:05.455Z,32.70
2023-01-26T09:04:10.616Z,32.37
2023-01-26T09:09:17.127Z,33.77
2023-01-26T09:14:25.146Z,36.67
2023-01-26T09:19:31.262Z,33.40
2023-01-26T09:24:38.463Z,36.37
2023-01-26T09:29:46.330Z,37.13
2023-01-26T09:34:51.765Z,36.53
2023-01-26T09:39:56.986Z,33.03
2023-01-26T09:45:23.509Z,36.40
2023-01-26T09:50:30.348Z,38.33
2023-01-26T09:55:35.485Z,36.17
2023-01-26T10:00:46.586Z,41.27
2023-01-26T10:05:55.116Z,39.93
2023-01-26T10:11:03.541Z,36.37
2023-01-26T10:16:12.727Z,35.57
2023-01-26T10:21:17.995Z,41.30
2023-01-26T10:26:25.198Z,39.83
2023-01-26T10:31:35.363Z,40.10
2023-01-26T10:36:40.705Z,41.43
2023-01-26T10:42:00.220Z,39.57
2023-01-26T10:47:10.273Z,39.43
2023-01-26T10:52:21.699Z,45.03
2023-01-26T10:57:30.906Z,47.90
2023-01-26T11:02:39.172Z,46.50
2023-01-26T11:07:45.309Z,44.07
2023-01-26T11:12:50.517Z,47.47
2023-01-26T11:18:02.155Z,38.90
2023-01-26T11:23:11.516Z,42.97
2023-01-26T11:28:30.437Z,47.03
2023-01-26T11:33:42.053Z,49.30
2023-01-26T11:38:49.679Z,53.17
2023-01-26T11:44:23.194Z,42.10
2023-01-26T11:49:53.330Z,38.73
2023-01-26T11:55:28.108Z,41.37
2023-01-26T12:00:40.643Z,35.83
2023-01-26T12:05:50.843Z,38.37
2023-01-26T12:11:22.603Z,40.67
2023-01-26T12:16:34.176Z,42.83
2023-01-26T12:21:43.396Z,50.47
2023-01-26T12:26:51.051Z,50.57
2023-01-26T12:32:00.366Z,43.57
2023-01-26T12:37:28.986Z,47.57
2023-01-26T12:42:42.504Z,39.70
2023-01-26T12:47:50.548Z,46.60
2023-01-26T12:53:00.416Z,42.70
2023-01-26T12:58:06.849Z,41.50
2023-01-26T13:03:18.337Z,37.63
2023-01-26T13:08:54.755Z,37.70
2023-01-26T13:14:00.346Z,33.90
2023-01-26T13:19:05.605Z,32.20
2023-01-26T13:24:47.142Z,29.17
2023-01-26T13:29:58.712Z,36.37
2023-01-26T13:35:05.721Z,24.80
2023-01-26T13:40:24.183Z,30.00
2023-01-26T13:45:34.315Z,28.73
2023-01-26T13:50:40.572Z,22.77
2023-01-26T13:56:01.801Z,23.07
2023-01-26T14:01:09.013Z,23.03
2023-01-26T14:06:16.611Z,26.60
2023-01-26T14:11:26.752Z,23.73
2023-01-26T14:16:33.530Z,18.50
2023-01-26T14:21:50.211Z,19.03
2023-01-26T14:26:58.142Z,14.17
2023-01-26T14:32:03.538Z,13.57
2023-01-26T14:37:10.382Z,14.60
2023-01-26T14:42:19.396Z,14.23
2023-01-26T14:47:25.539Z,12.33
2023-01-26T14:52:33.860Z,9.90
2023-01-26T14:57:41.571Z,11.53
2023-01-26T15:02:47.233Z,10.93
2023-01-26T15:07:54.467Z,9.33
2023-01-26T15:13:04.808Z,10.27
2023-01-26T15:18:21.277Z,8.10
2023-01-26T15:23:30.166Z,9.97
2023-01-26T15:28:38.647Z,8.10
2023-01-26T15:33:53.937Z,7.97
2023-01-26T15:39:02.690Z,11.17
2023-01-26T15:44:16.440Z,11.17
2023-01-26T15:49:23.020Z,15.47
2023-01-26T15:54:28.162Z,15.37
2023-01-26T15:59:35.961Z,12.53
2023-01-26T16:04:41.125Z,21.50
2023-01-26T16:09:48.308Z,19.23
2023-01-26T16:14:56.029Z,24.30
2023-01-26T16:20:01.329Z,27.63
2023-01-26T16:25:13.324Z,26.00
2023-01-26T16:30:21.418Z,30.03
2023-01-26T16:35:26.661Z,34.50
2023-01-26T16:40:32.038Z,30.77
2023-01-26T16:45:39.864Z,42.60
2023-01-26T16:50:45.130Z,43.67
2023-01-26T16:55:50.461Z,40.43
2023-01-26T17:00:58.327Z,49.63
2023-01-26T17:06:03.820Z,50.67
2023-01-26T17:11:09.195Z,53.10
2023-01-26T17:16:20.112Z,61.20
2023-01-26T17:21:26.549Z,61.67
2023-01-26T17:26:31.711Z,76.47
2023-01-26T17:31:39.583Z,65.70
2023-01-26T17:36:46.065Z,74.53
2023-01-26T17:41:51.398Z,76.43
2023-01-26T17:46:59.313Z,74.47
2023-01-26T17:52:04.543Z,69.83
2023-01-26T17:57:09.783Z,78.40
2023-01-26T18:02:17.922Z,79.13
2023-01-26T18:07:23.132Z,85.93
2023-01-26T18:12:28.314Z,66.37
2023-01-26T18:17:36.883Z,78.33
2023-01-26T18:22:42.103Z,87.00
2023-01-26T18:27:47.160Z,87.33
2023-01-26T18:32:55.326Z,81.53
2023-01-26T18:38:01.266Z,77.93
2023-01-26T18:43:07.200Z,81.10
2023-01-26T18:48:15.354Z,80.17
2023-01-26T18:53:20.646Z,70.13
2023-01-26T18:58:25.881Z,95.10
2023-01-26T19:03:33.602Z,92.83
2023-01-26T19:08:39.868Z,90.13
2023-01-26T19:13:45.510Z,97.77
2023-01-26T19:18:54.383Z,78.20
2023-01-26T19:24:02.547Z,86.37
2023-01-26T19:29:07.935Z,88.43
2023-01-26T19:34:17.372Z,75.23
2023-01-26T22:08:47.871Z,55.67
2023-01-26T22:13:53.162Z,58.57
2023-01-26T22:18:58.516Z,55.47
2023-01-26T22:24:07.442Z,47.80
2023-01-26T22:29:13.711Z,47.63
2023-01-26T22:34:18.772Z,50.00
2023-01-26T22:39:26.592Z,38.37
2023-01-26T22:44:31.864Z,41.40
2023-01-26T22:49:36.901Z,36.97
2023-01-26T22:54:44.852Z,35.03
2023-01-26T22:59:51.493Z,32.27
2023-01-26T23:04:56.694Z,36.17
2023-01-26T23:10:04.440Z,28.43
2023-01-26T23:15:11.586Z,36.63
2023-01-26T23:20:17.079Z,31.83
2023-01-26T23:25:37.193Z,37.10
2023-01-26T23:30:43.267Z,36.53
2023-01-26T23:35:48.516Z,41.77
